createdAt,value
2017-05-10T00:00:04.989Z,20.8
2017-05-10T00:02:04.741Z,20.8
2017-05-10T00:04:05.806Z,20.7
2017-05-10T00:06:10.564Z,20.7
2017-05-10T00:08:07.869Z,20.7
2017-05-10T00:10:05.826Z,20.7
2017-05-10T00:12:05.483Z,20.7
2017-05-10T00:14:05.172Z,20.7
2017-05-10T00:16:05.322Z,20.7
2017-05-10T00:18:07.843Z,20.7
2017-05-10T00:20:10.604Z,20.7
2017-05-10T00:22:05.796Z,20.7
2017-05-10T00:24:04.726Z,20.7
2017-05-10T00:26:05.237Z,20.7
2017-05-10T00:28:07.632Z,20.7
2017-05-10T00:30:05.337Z,20.7
2017-05-10T00:32:05.599Z,20.7
2017-05-10T00:34:05.575Z,20.7
2017-05-10T00:36:04.811Z,20.7
2017-05-10T00:38:10.592Z,20.7
2017-05-10T00:40:05.485Z,20.7
2017-05-10T00:42:05.137Z,20.7
2017-05-10T00:44:04.818Z,20.7
2017-05-10T00:46:08.254Z,20.7
2017-05-10T00:48:07.486Z,20.7
2017-05-10T00:50:05.205Z,20.7
2017-05-10T00:52:07.891Z,20.6
2017-05-10T00:54:04.685Z,20.6
2017-05-10T00:56:07.971Z,20.6
2017-05-10T00:58:04.871Z,20.6
2017-05-10T01:00:08.130Z,20.6
2017-05-10T01:02:04.903Z,20.6
2017-05-10T01:04:05.884Z,20.6
2017-05-10T01:06:05.730Z,20.6
2017-05-10T01:08:05.403Z,20.6
2017-05-10T01:10:07.885Z,20.6
2017-05-10T01:12:08.129Z,20.6
2017-05-10T01:14:05.806Z,20.6
2017-05-10T01:16:05.830Z,20.6
2017-05-10T01:18:04.737Z,20.6
2017-05-10T01:20:10.499Z,20.6
2017-05-10T01:22:05.509Z,20.6
2017-05-10T01:24:05.260Z,20.6
2017-05-10T01:26:04.955Z,20.6
2017-05-10T01:28:10.066Z,20.6
2017-05-10T01:30:05.034Z,20.5
2017-05-10T01:32:04.835Z,20.6
2017-05-10T01:34:05.870Z,20.6
2017-05-10T01:36:05.158Z,20.5
2017-05-10T01:38:04.953Z,20.6
2017-05-10T01:40:04.843Z,20.5
2017-05-10T01:42:05.636Z,20.5
2017-05-10T01:44:07.983Z,20.5
2017-05-10T01:46:05.056Z,20.5
2017-05-10T01:48:04.885Z,20.5
2017-05-10T01:50:05.629Z,20.5
2017-05-10T01:52:08.201Z,20.5
2017-05-10T01:54:05.067Z,20.5
2017-05-10T01:56:07.324Z,20.5
2017-05-10T01:58:05.699Z,20.5
2017-05-10T02:00:05.361Z,20.5
2017-05-10T02:02:05.961Z,20.5
2017-05-10T02:04:05.047Z,20.5
2017-05-10T02:06:04.722Z,20.5
2017-05-10T02:08:05.427Z,20.5
2017-05-10T02:10:07.570Z,20.5
2017-05-10T02:12:04.739Z,20.5
2017-05-10T02:14:04.626Z,20.5
2017-05-10T02:16:05.571Z,20.5
2017-05-10T02:18:08.375Z,20.5
2017-05-10T02:20:05.111Z,20.5
2017-05-10T02:22:04.970Z,20.5
2017-05-10T02:24:07.720Z,20.5
2017-05-10T02:26:05.398Z,20.4
2017-05-10T02:28:05.266Z,20.4
2017-05-10T02:30:04.959Z,20.4
2017-05-10T02:32:05.185Z,20.5
2017-05-10T02:34:05.193Z,20.4
2017-05-10T02:36:04.901Z,20.5
2017-05-10T02:38:04.642Z,20.4
2017-05-10T02:40:05.689Z,20.4
2017-05-10T02:42:05.395Z,20.4
2017-05-10T02:44:05.174Z,20.4
2017-05-10T02:46:05.573Z,20.4
2017-05-10T02:48:05.265Z,20.4
2017-05-10T02:50:05.219Z,20.4
2017-05-10T02:52:10.277Z,20.4
2017-05-10T02:54:04.980Z,20.4
2017-05-10T02:56:04.675Z,20.4
2017-05-10T02:58:08.033Z,20.4
2017-05-10T03:00:05.268Z,20.4
2017-05-10T03:02:05.044Z,20.4
2017-05-10T03:04:07.650Z,20.4
2017-05-10T03:06:07.700Z,20.4
2017-05-10T03:08:04.983Z,20.4
2017-05-10T03:10:05.000Z,20.4
2017-05-10T03:12:05.307Z,20.4
2017-05-10T03:14:18.211Z,20.4
2017-05-10T03:16:05.689Z,20.4
2017-05-10T03:18:10.657Z,20.4
2017-05-10T03:20:05.445Z,20.4
2017-05-10T03:22:05.470Z,20.3
2017-05-10T03:24:05.282Z,20.4
2017-05-10T03:26:04.950Z,20.4
2017-05-10T03:28:05.482Z,20.4
2017-05-10T03:30:05.142Z,20.3
2017-05-10T03:32:04.844Z,20.3
2017-05-10T03:34:10.952Z,20.3
2017-05-10T03:36:04.704Z,20.3
2017-05-10T03:38:07.694Z,20.3
2017-05-10T03:40:05.566Z,20.3
2017-05-10T03:42:05.272Z,20.3
2017-05-10T03:44:05.005Z,20.3
2017-05-10T03:46:05.118Z,20.3
2017-05-10T03:48:04.811Z,20.3
2017-05-10T03:50:08.056Z,20.3
2017-05-10T03:52:07.611Z,20.3
2017-05-10T03:54:05.656Z,20.3
2017-05-10T03:56:05.396Z,20.3
2017-05-10T03:58:05.425Z,20.3
2017-05-10T04:00:04.758Z,20.3
2017-05-10T04:02:10.579Z,20.3
2017-05-10T04:04:05.619Z,20.3
2017-05-10T04:06:04.910Z,20.3
2017-05-10T04:08:05.253Z,20.3
2017-05-10T04:10:05.295Z,20.3
2017-05-10T04:12:05.529Z,20.3
2017-05-10T04:14:05.217Z,20.2
2017-05-10T04:16:08.353Z,20.3
2017-05-10T04:18:05.244Z,20.2
2017-05-10T04:20:04.927Z,20.3
2017-05-10T04:22:05.279Z,20.3
2017-05-10T04:24:05.489Z,20.3
2017-05-10T04:26:05.529Z,20.2
2017-05-10T04:28:05.475Z,20.2
2017-05-10T04:30:05.252Z,20.3
2017-05-10T04:32:05.082Z,20.3
2017-05-10T04:34:05.359Z,20.3
2017-05-10T04:36:05.071Z,20.3
2017-05-10T04:38:15.067Z,20.3
2017-05-10T04:40:05.114Z,20.3
2017-05-10T04:42:05.153Z,20.3
2017-05-10T04:44:07.384Z,20.4
2017-05-10T04:46:05.241Z,20.4
2017-05-10T04:48:04.975Z,20.4
2017-05-10T04:50:04.707Z,20.4
2017-05-10T04:52:05.744Z,20.4
2017-05-10T04:54:05.486Z,20.4
2017-05-10T04:56:07.703Z,20.5
2017-05-10T04:58:05.720Z,20.5
2017-05-10T05:00:05.453Z,20.5
2017-05-10T05:02:05.104Z,20.5
2017-05-10T05:04:04.943Z,20.6
2017-05-10T05:06:04.697Z,20.6
2017-05-10T05:08:05.353Z,20.6
2017-05-10T05:10:05.218Z,20.6
2017-05-10T05:12:04.932Z,20.6
2017-05-10T05:14:04.839Z,20.7
2017-05-10T05:16:05.631Z,20.7
2017-05-10T05:18:07.285Z,20.7
2017-05-10T05:20:05.303Z,20.7
2017-05-10T05:22:05.361Z,20.8
2017-05-10T05:24:05.085Z,20.8
2017-05-10T05:26:07.335Z,20.8
2017-05-10T05:28:05.207Z,20.8
2017-05-10T05:30:06.033Z,20.8
2017-05-10T05:32:04.766Z,20.8
2017-05-10T05:34:05.746Z,20.9
2017-05-10T05:36:08.003Z,20.9
2017-05-10T05:38:05.226Z,20.9
2017-05-10T05:40:05.678Z,20.9
2017-05-10T05:42:05.401Z,20.9
2017-05-10T05:44:08.168Z,21
2017-05-10T05:46:10.057Z,21
2017-05-10T05:48:04.779Z,21
2017-05-10T05:50:05.453Z,21
2017-05-10T05:52:05.552Z,21
2017-05-10T05:54:04.962Z,21
2017-05-10T05:56:05.335Z,21
2017-05-10T05:58:05.478Z,21.1
2017-05-10T06:00:05.224Z,21.1
2017-05-10T06:02:05.198Z,21.1
2017-05-10T06:04:07.975Z,21.1
2017-05-10T06:06:07.237Z,21.1
2017-05-10T06:08:04.914Z,21.1
2017-05-10T06:10:07.407Z,21.1
2017-05-10T06:12:10.318Z,21.1
2017-05-10T06:14:05.207Z,21.2
2017-05-10T06:16:05.000Z,21.2
2017-05-10T06:18:10.346Z,21.2
2017-05-10T06:20:05.135Z,21.2
2017-05-10T06:22:05.707Z,21.2
2017-05-10T06:24:04.952Z,21.3
2017-05-10T06:26:04.702Z,21.3
2017-05-10T06:28:05.661Z,21.3
2017-05-10T06:30:04.921Z,21.3
2017-05-10T06:32:10.174Z,21.3
2017-05-10T06:34:14.959Z,21.3
2017-05-10T06:36:04.722Z,21.4
2017-05-10T06:38:05.256Z,21.4
2017-05-10T06:40:05.156Z,21.4
2017-05-10T06:42:05.054Z,21.4
2017-05-10T06:44:07.510Z,21.4
2017-05-10T06:46:05.466Z,21.4
2017-05-10T06:48:04.781Z,21.4
2017-05-10T06:50:05.844Z,21.5
2017-05-10T06:52:05.818Z,21.5
2017-05-10T06:54:07.243Z,21.5
2017-05-10T06:56:07.894Z,21.6
2017-05-10T06:58:04.947Z,21.6
2017-05-10T07:00:05.172Z,21.6
2017-05-10T07:02:05.309Z,21.6
2017-05-10T07:04:07.734Z,21.6
2017-05-10T07:06:05.743Z,21.6
2017-05-10T07:08:05.462Z,21.6
2017-05-10T07:10:05.884Z,21.6
2017-05-10T07:12:05.031Z,21.6
2017-05-10T07:14:04.755Z,21.7
2017-05-10T07:16:05.614Z,21.7
2017-05-10T07:18:05.639Z,21.7
2017-05-10T07:20:05.366Z,21.7
2017-05-10T07:22:08.132Z,21.8
2017-05-10T07:24:05.378Z,21.8
2017-05-10T07:26:05.614Z,21.8
2017-05-10T07:28:08.093Z,21.8
2017-05-10T07:30:10.006Z,21.9
2017-05-10T07:32:14.886Z,21.9
2017-05-10T07:34:07.723Z,21.9
2017-05-10T07:36:07.988Z,21.9
2017-05-10T07:38:08.118Z,22
2017-05-10T07:40:05.254Z,21.9
2017-05-10T07:42:04.978Z,22
2017-05-10T07:44:04.881Z,22
2017-05-10T07:46:07.769Z,22.1
2017-05-10T07:48:05.446Z,22.1
2017-05-10T07:50:05.147Z,22.1
2017-05-10T07:52:05.154Z,22.1
2017-05-10T07:54:07.738Z,22.1
2017-05-10T07:56:05.481Z,22.1
2017-05-10T07:58:05.534Z,22.1
2017-05-10T08:00:05.234Z,22.2
2017-05-10T08:02:04.990Z,22.2
2017-05-10T08:04:04.949Z,22.2
2017-05-10T08:06:05.212Z,22.2
2017-05-10T08:08:07.437Z,22.2
2017-05-10T08:10:07.976Z,22.2
2017-05-10T08:12:04.673Z,22.2
2017-05-10T08:14:05.579Z,22.3
2017-05-10T08:16:07.953Z,22.2
2017-05-10T08:18:04.905Z,22.2
2017-05-10T08:20:04.616Z,22.3
2017-05-10T08:22:05.644Z,22.3
2017-05-10T08:24:07.917Z,22.3
2017-05-10T08:26:04.838Z,22.3
2017-05-10T08:28:10.871Z,22.3
2017-05-10T08:30:04.617Z,22.3
2017-05-10T08:32:05.391Z,22.3
2017-05-10T08:34:05.420Z,22.3
2017-05-10T08:36:04.649Z,22.3
2017-05-10T08:38:15.429Z,22.3
2017-05-10T08:40:05.510Z,22.3
2017-05-10T08:42:07.522Z,22.3
2017-05-10T08:44:05.238Z,22.3
2017-05-10T08:46:05.764Z,22.3
2017-05-10T08:48:05.472Z,22.3
2017-05-10T08:50:05.177Z,22.4
2017-05-10T08:52:07.742Z,22.4
2017-05-10T08:54:10.142Z,22.4
2017-05-10T08:56:08.060Z,22.4
2017-05-10T08:58:05.089Z,22.4
2017-05-10T09:00:04.845Z,22.4
2017-05-10T09:02:05.552Z,22.4
2017-05-10T09:04:05.703Z,22.4
2017-05-10T09:06:05.457Z,22.4
2017-05-10T09:08:05.183Z,22.5
2017-05-10T09:10:07.616Z,22.5
2017-05-10T09:12:04.865Z,22.5
2017-05-10T09:14:08.461Z,22.5
2017-05-10T09:16:05.532Z,22.5
2017-05-10T09:18:04.993Z,22.5
2017-05-10T09:20:04.655Z,22.5
2017-05-10T09:22:05.539Z,22.5
2017-05-10T09:24:04.830Z,22.5
2017-05-10T09:26:13.127Z,22.5
2017-05-10T09:28:05.528Z,22.5
2017-05-10T09:30:05.423Z,22.5
2017-05-10T09:32:05.399Z,22.5
2017-05-10T09:34:05.402Z,22.5
2017-05-10T09:36:04.687Z,22.5
2017-05-10T09:38:05.482Z,22.5
2017-05-10T09:40:05.350Z,22.5
2017-05-10T09:42:05.054Z,22.5
2017-05-10T09:44:04.785Z,22.5
2017-05-10T09:46:07.938Z,22.4
2017-05-10T09:48:04.601Z,22.4
2017-05-10T09:50:05.307Z,22.4
2017-05-10T09:52:07.905Z,22.4
2017-05-10T09:54:05.117Z,22.4
2017-05-10T09:56:07.336Z,22.4
2017-05-10T09:58:08.246Z,22.4
2017-05-10T10:00:04.966Z,22.3
2017-05-10T10:02:05.027Z,22.3
2017-05-10T10:04:07.463Z,22.3
2017-05-10T10:06:05.168Z,22.3
2017-05-10T10:08:04.832Z,22.3
2017-05-10T10:10:05.906Z,22.3
2017-05-10T10:12:07.174Z,22.2
2017-05-10T10:14:04.940Z,22.2
2017-05-10T10:16:07.452Z,22.2
2017-05-10T10:18:05.023Z,22.2
2017-05-10T10:20:04.724Z,22.2
2017-05-10T10:22:05.747Z,22.2
2017-05-10T10:24:05.437Z,22.2
2017-05-10T10:26:04.863Z,22.1
2017-05-10T10:28:04.966Z,22.1
2017-05-10T10:30:04.695Z,22.1
2017-05-10T10:32:05.383Z,22.1
2017-05-10T10:34:04.965Z,22.1
2017-05-10T10:36:04.699Z,22.1
2017-05-10T10:38:05.419Z,22.1
2017-05-10T10:40:07.849Z,22.1
2017-05-10T10:42:04.644Z,22
2017-05-10T10:44:05.362Z,22
2017-05-10T10:46:05.386Z,22
2017-05-10T10:48:05.051Z,22
2017-05-10T10:50:07.417Z,22
2017-05-10T10:52:10.494Z,21.9
2017-05-10T10:54:04.872Z,21.9
2017-05-10T10:56:10.662Z,21.9
2017-05-10T10:58:08.177Z,21.9
2017-05-10T11:00:07.480Z,21.9
2017-05-10T11:02:07.709Z,21.9
2017-05-10T11:04:05.695Z,21.9
2017-05-10T11:06:08.199Z,21.9
2017-05-10T11:08:04.922Z,21.9
2017-05-10T11:10:05.476Z,21.9
2017-05-10T11:12:05.242Z,21.9
2017-05-10T11:14:07.461Z,21.8
2017-05-10T11:16:05.388Z,21.8
2017-05-10T11:18:07.816Z,21.8
2017-05-10T11:20:12.719Z,21.8
2017-05-10T11:22:05.757Z,21.8
2017-05-10T11:24:05.406Z,21.8
2017-05-10T11:26:04.654Z,21.8
2017-05-10T11:28:05.708Z,21.8
2017-05-10T11:30:05.427Z,21.7
2017-05-10T11:32:07.632Z,21.7
2017-05-10T11:34:05.258Z,21.7
2017-05-10T11:36:07.514Z,21.7
2017-05-10T11:38:08.048Z,21.7
2017-05-10T11:40:07.573Z,21.7
2017-05-10T11:42:05.368Z,21.7
2017-05-10T11:44:05.061Z,21.7
2017-05-10T11:46:15.183Z,21.7
2017-05-10T11:48:09.912Z,21.7
2017-05-10T11:50:05.147Z,21.7
2017-05-10T11:52:05.139Z,21.7
2017-05-10T11:54:05.108Z,21.6
2017-05-10T11:56:04.850Z,21.6
2017-05-10T11:58:05.844Z,21.6
2017-05-10T12:00:05.530Z,21.6
2017-05-10T12:02:05.255Z,21.6
2017-05-10T12:04:08.358Z,21.6
2017-05-10T12:06:05.050Z,21.6
2017-05-10T12:08:04.799Z,21.6
2017-05-10T12:10:13.270Z,21.6
2017-05-10T12:12:04.963Z,21.6
2017-05-10T12:14:04.657Z,21.6
2017-05-10T12:16:05.693Z,21.6
2017-05-10T12:18:05.544Z,21.6
2017-05-10T12:20:07.751Z,21.6
2017-05-10T12:22:13.359Z,21.6
2017-05-10T12:24:10.107Z,21.6
2017-05-10T12:26:07.576Z,21.5
2017-05-10T12:28:07.942Z,21.5
2017-05-10T12:30:04.683Z,21.5
2017-05-10T12:32:05.387Z,21.5
2017-05-10T12:34:05.339Z,21.5
2017-05-10T12:36:04.962Z,21.5
2017-05-10T12:38:07.216Z,21.5
2017-05-10T12:40:05.027Z,21.5
2017-05-10T12:42:05.009Z,21.5
2017-05-10T12:44:07.353Z,21.5
2017-05-10T12:46:10.403Z,21.5
2017-05-10T12:48:05.103Z,21.5
2017-05-10T12:50:05.347Z,21.5
2017-05-10T12:52:05.181Z,21.5
2017-05-10T12:54:04.963Z,21.5
2017-05-10T12:56:07.186Z,21.5
2017-05-10T12:58:05.845Z,21.5
2017-05-10T13:00:05.585Z,21.5
2017-05-10T13:02:05.466Z,21.5
2017-05-10T13:04:05.616Z,21.5
2017-05-10T13:06:05.296Z,21.5
2017-05-10T13:08:10.125Z,21.4
2017-05-10T13:10:05.480Z,21.4
2017-05-10T13:12:10.244Z,21.5
2017-05-10T13:14:07.808Z,21.5
2017-05-10T13:16:05.808Z,21.5
2017-05-10T13:18:04.717Z,21.5
2017-05-10T13:20:07.549Z,21.5
2017-05-10T13:22:05.714Z,21.4
2017-05-10T13:24:04.951Z,21.5
2017-05-10T13:26:04.643Z,21.5
2017-05-10T13:28:05.504Z,21.5
2017-05-10T13:30:07.589Z,21.4
2017-05-10T13:32:05.304Z,21.5
2017-05-10T13:34:05.306Z,21.5
2017-05-10T13:36:05.048Z,21.5
2017-05-10T13:38:04.779Z,21.4
2017-05-10T13:40:10.525Z,21.5
2017-05-10T13:42:04.972Z,21.5
2017-05-10T13:44:04.828Z,21.5
2017-05-10T13:46:05.478Z,21.5
2017-05-10T13:48:05.225Z,21.5
2017-05-10T13:50:10.065Z,21.5
2017-05-10T13:52:10.027Z,21.5
2017-05-10T13:54:05.264Z,21.5
2017-05-10T13:56:04.953Z,21.4
2017-05-10T13:58:04.947Z,21.5
2017-05-10T14:00:04.718Z,21.4
2017-05-10T14:02:08.232Z,21.4
2017-05-10T14:04:07.671Z,21.4
2017-05-10T14:06:05.390Z,21.4
2017-05-10T14:08:05.161Z,21.5
2017-05-10T14:10:07.614Z,21.5
2017-05-10T14:12:07.790Z,21.5
2017-05-10T14:14:05.488Z,21.5
2017-05-10T14:16:07.698Z,21.5
2017-05-10T14:18:08.515Z,21.4
2017-05-10T14:20:05.241Z,21.4
2017-05-10T14:22:05.309Z,21.4
2017-05-10T14:24:11.071Z,21.4
2017-05-10T14:26:05.487Z,21.4
2017-05-10T14:28:12.944Z,21.4
2017-05-10T14:30:05.488Z,21.4
2017-05-10T14:32:10.504Z,21.4
2017-05-10T14:34:05.772Z,21.4
2017-05-10T14:36:05.475Z,21.4
2017-05-10T14:38:10.309Z,21.4
2017-05-10T14:40:05.300Z,21.4
2017-05-10T14:42:07.609Z,21.4
2017-05-10T14:44:05.346Z,21.4
2017-05-10T14:46:05.239Z,21.4
2017-05-10T14:48:04.957Z,21.4
2017-05-10T14:50:05.036Z,21.4
2017-05-10T14:52:05.096Z,21.4
2017-05-10T14:54:04.867Z,21.4
2017-05-10T14:56:05.634Z,21.4
2017-05-10T14:58:08.048Z,21.4
2017-05-10T15:00:04.805Z,21.4
2017-05-10T15:02:10.790Z,21.4
2017-05-10T15:04:07.541Z,21.4
2017-05-10T15:06:05.560Z,21.4
2017-05-10T15:08:05.255Z,21.4
2017-05-10T15:10:07.778Z,21.4
2017-05-10T15:12:05.463Z,21.4
2017-05-10T15:14:07.700Z,21.5
2017-05-10T15:16:05.068Z,21.5
2017-05-10T15:18:05.085Z,21.4
2017-05-10T15:20:04.792Z,21.5
2017-05-10T15:22:05.803Z,21.5
2017-05-10T15:24:05.460Z,21.5
2017-05-10T15:26:07.244Z,21.5
2017-05-10T15:28:07.624Z,21.5
2017-05-10T15:30:07.853Z,21.5
2017-05-10T15:32:05.686Z,21.5
2017-05-10T15:34:05.697Z,21.5
2017-05-10T15:36:05.400Z,21.5
2017-05-10T15:38:05.754Z,21.5
2017-05-10T15:40:05.739Z,21.5
2017-05-10T15:42:05.442Z,21.5
2017-05-10T15:44:10.187Z,21.5
2017-05-10T15:46:05.047Z,21.5
2017-05-10T15:48:07.357Z,21.5
2017-05-10T15:50:05.051Z,21.5
2017-05-10T15:52:05.109Z,21.5
2017-05-10T15:54:05.178Z,21.6
2017-05-10T15:56:07.535Z,21.5
2017-05-10T15:58:08.181Z,21.6
2017-05-10T16:00:04.891Z,21.6
2017-05-10T16:02:05.381Z,21.6
2017-05-10T16:04:07.453Z,21.6
2017-05-10T16:06:10.233Z,21.6
2017-05-10T16:08:05.079Z,21.5
2017-05-10T16:10:13.438Z,21.5
2017-05-10T16:12:05.172Z,21.5
2017-05-10T16:14:13.040Z,21.6
2017-05-10T16:16:04.852Z,21.6
2017-05-10T16:18:04.906Z,21.6
2017-05-10T16:20:05.661Z,21.6
2017-05-10T16:22:05.626Z,21.6
2017-05-10T16:24:04.851Z,21.6
2017-05-10T16:26:05.890Z,21.6
2017-05-10T16:28:05.938Z,21.6
2017-05-10T16:30:09.769Z,21.6
2017-05-10T16:32:04.961Z,21.6
2017-05-10T16:34:07.599Z,21.6
2017-05-10T16:36:07.800Z,21.6
2017-05-10T16:38:05.008Z,21.6
2017-05-10T16:40:04.890Z,21.6
2017-05-10T16:42:07.960Z,21.6
2017-05-10T16:44:04.725Z,21.6
2017-05-10T16:46:05.782Z,21.6
2017-05-10T16:48:05.578Z,21.6
2017-05-10T16:50:05.338Z,21.6
2017-05-10T16:52:05.375Z,21.6
2017-05-10T16:54:05.607Z,21.6
2017-05-10T16:56:05.363Z,21.6
2017-05-10T16:58:05.491Z,21.6
2017-05-10T17:00:05.239Z,21.6
2017-05-10T17:02:04.918Z,21.6
2017-05-10T17:04:05.917Z,21.6
2017-05-10T17:06:04.608Z,21.6
2017-05-10T17:08:10.414Z,21.6
2017-05-10T17:10:04.772Z,21.6
2017-05-10T17:12:10.018Z,21.6
2017-05-10T17:14:04.986Z,21.6
2017-05-10T17:16:05.394Z,21.6
2017-05-10T17:18:05.568Z,21.6
2017-05-10T17:20:05.271Z,21.6
2017-05-10T17:22:05.364Z,21.6
2017-05-10T17:24:10.623Z,21.6
2017-05-10T17:26:05.322Z,21.6
2017-05-10T17:28:05.259Z,21.6
2017-05-10T17:30:05.259Z,21.6
2017-05-10T17:32:04.999Z,21.6
2017-05-10T17:34:09.748Z,21.6
2017-05-10T17:36:05.600Z,21.6
2017-05-10T17:38:05.280Z,21.6
2017-05-10T17:40:10.305Z,21.6
2017-05-10T17:42:05.049Z,21.6
2017-05-10T17:44:04.845Z,21.6
2017-05-10T17:46:13.745Z,21.6
2017-05-10T17:48:05.066Z,21.6
2017-05-10T17:50:15.444Z,21.6
2017-05-10T17:52:05.330Z,21.6
2017-05-10T17:54:05.152Z,21.7
2017-05-10T17:56:04.880Z,21.7
2017-05-10T17:58:12.491Z,21.6
2017-05-10T18:00:05.425Z,21.6
2017-05-10T18:02:05.650Z,21.6
2017-05-10T18:04:05.752Z,21.6
2017-05-10T18:06:05.468Z,21.6
2017-05-10T18:08:05.213Z,21.7
2017-05-10T18:10:05.031Z,21.7
2017-05-10T18:12:04.775Z,21.7
2017-05-10T18:14:05.476Z,21.6
2017-05-10T18:16:08.017Z,21.6
2017-05-10T18:18:05.192Z,21.6
2017-05-10T18:20:04.863Z,21.6
2017-05-10T18:22:08.516Z,21.6
2017-05-10T18:24:05.468Z,21.6
2017-05-10T18:26:07.256Z,21.6
2017-05-10T18:28:07.728Z,21.6
2017-05-10T18:30:05.503Z,21.6
2017-05-10T18:32:10.750Z,21.5
2017-05-10T18:34:05.286Z,21.6
2017-05-10T18:36:05.571Z,21.5
2017-05-10T18:38:05.313Z,21.5
2017-05-10T18:40:05.289Z,21.5
2017-05-10T18:42:10.226Z,21.5
2017-05-10T18:44:04.947Z,21.5
2017-05-10T18:46:07.531Z,21.5
2017-05-10T18:48:14.923Z,21.5
2017-05-10T18:50:05.578Z,21.5
2017-05-10T18:52:04.844Z,21.5
2017-05-10T18:54:05.505Z,21.5
2017-05-10T18:56:05.467Z,21.5
2017-05-10T18:58:05.219Z,21.5
2017-05-10T19:00:05.167Z,21.5
2017-05-10T19:02:04.937Z,21.5
2017-05-10T19:04:05.002Z,21.4
2017-05-10T19:06:07.548Z,21.4
2017-05-10T19:08:05.010Z,21.4
2017-05-10T19:10:07.430Z,21.4
2017-05-10T19:12:07.217Z,21.4
2017-05-10T19:14:05.026Z,21.4
2017-05-10T19:16:12.280Z,21.4
2017-05-10T19:18:04.720Z,21.4
2017-05-10T19:20:05.405Z,21.4
2017-05-10T19:22:05.450Z,21.4
2017-05-10T19:24:05.151Z,21.4
2017-05-10T19:26:07.484Z,21.4
2017-05-10T19:28:11.398Z,21.4
2017-05-10T19:30:05.315Z,21.4
2017-05-10T19:32:05.058Z,21.4
2017-05-10T19:34:04.879Z,21.4
2017-05-10T19:36:10.664Z,21.3
2017-05-10T19:38:05.789Z,21.4
2017-05-10T19:40:05.998Z,21.4
2017-05-10T19:42:04.955Z,21.4
2017-05-10T19:44:04.704Z,21.4
2017-05-10T19:46:05.670Z,21.4
2017-05-10T19:48:04.913Z,21.4
2017-05-10T19:50:04.675Z,21.4
2017-05-10T19:52:05.273Z,21.3
2017-05-10T19:54:08.296Z,21.3
2017-05-10T19:56:05.050Z,21.3
2017-05-10T19:58:05.155Z,21.4
2017-05-10T20:00:05.101Z,21.3
2017-05-10T20:02:04.796Z,21.3
2017-05-10T20:04:05.822Z,21.3
2017-05-10T20:06:05.528Z,21.3
2017-05-10T20:08:05.280Z,21.3
2017-05-10T20:10:05.386Z,21.3
2017-05-10T20:12:05.322Z,21.3
2017-05-10T20:14:05.087Z,21.3
2017-05-10T20:16:05.376Z,21.3
2017-05-10T20:18:07.831Z,21.3
2017-05-10T20:20:05.517Z,21.3
2017-05-10T20:22:05.540Z,21.3
2017-05-10T20:24:07.822Z,21.3
2017-05-10T20:26:05.698Z,21.3
2017-05-10T20:28:08.258Z,21.2
2017-05-10T20:30:04.934Z,21.3
2017-05-10T20:32:04.735Z,21.3
2017-05-10T20:34:05.703Z,21.3
2017-05-10T20:36:05.424Z,21.3
2017-05-10T20:38:10.196Z,21.3
2017-05-10T20:40:05.027Z,21.2
2017-05-10T20:42:05.052Z,21.2
2017-05-10T20:44:05.277Z,21.2
2017-05-10T20:46:05.090Z,21.2
2017-05-10T20:48:05.008Z,21.2
2017-05-10T20:50:04.722Z,21.2
2017-05-10T20:52:05.699Z,21.2
2017-05-10T20:54:07.918Z,21.2
2017-05-10T20:56:05.582Z,21.2
2017-05-10T20:58:08.127Z,21.2
2017-05-10T21:00:04.883Z,21.2
2017-05-10T21:02:05.581Z,21.2
2017-05-10T21:04:05.605Z,21.2
2017-05-10T21:06:05.337Z,21.2
2017-05-10T21:08:05.280Z,21.2
2017-05-10T21:10:10.266Z,21.2
2017-05-10T21:12:09.975Z,21.2
2017-05-10T21:14:05.361Z,21.2
2017-05-10T21:16:05.166Z,21.2
2017-05-10T21:18:05.139Z,21.2
2017-05-10T21:20:05.381Z,21.2
2017-05-10T21:22:05.247Z,21.2
2017-05-10T21:24:05.078Z,21.2
2017-05-10T21:26:09.863Z,21.2
2017-05-10T21:28:06.007Z,21.2
2017-05-10T21:30:07.383Z,21.2
2017-05-10T21:32:05.046Z,21.2
2017-05-10T21:34:05.227Z,21.2
2017-05-10T21:36:12.484Z,21.2
2017-05-10T21:38:05.192Z,21.2
2017-05-10T21:40:07.607Z,21.1
2017-05-10T21:42:05.349Z,21.1
2017-05-10T21:44:05.058Z,21.2
2017-05-10T21:46:05.075Z,21.1
2017-05-10T21:48:04.784Z,21.1
2017-05-10T21:50:05.455Z,21.1
2017-05-10T21:52:05.492Z,21.1
2017-05-10T21:54:05.236Z,21.1
2017-05-10T21:56:04.993Z,21.1
2017-05-10T21:58:04.840Z,21.1
2017-05-10T22:00:05.120Z,21.1
2017-05-10T22:02:04.887Z,21.1
2017-05-10T22:04:05.962Z,21.1
2017-05-10T22:06:04.896Z,21.1
2017-05-10T22:08:05.578Z,21.1
2017-05-10T22:10:05.304Z,21.1
2017-05-10T22:12:22.663Z,21.1
2017-05-10T22:14:04.773Z,21.1
2017-05-10T22:16:07.707Z,21.1
2017-05-10T22:18:05.037Z,21.1
2017-05-10T22:20:04.950Z,21.1
2017-05-10T22:22:04.790Z,21.1
2017-05-10T22:24:05.510Z,21.1
2017-05-10T22:26:05.192Z,21.1
2017-05-10T22:28:12.761Z,21.1
2017-05-10T22:30:10.554Z,21.1
2017-05-10T22:32:05.273Z,21.1
2017-05-10T22:34:05.220Z,21.1
2017-05-10T22:36:04.976Z,21
2017-05-10T22:38:07.188Z,21.1
2017-05-10T22:40:05.211Z,21
2017-05-10T22:42:05.424Z,21.1
2017-05-10T22:44:07.663Z,21
2017-05-10T22:46:10.772Z,21
2017-05-10T22:48:05.038Z,21
2017-05-10T22:50:05.518Z,21
2017-05-10T22:52:05.518Z,21
2017-05-10T22:54:05.375Z,21
2017-05-10T22:56:05.071Z,21
2017-05-10T22:58:05.079Z,21
2017-05-10T23:00:04.822Z,21
2017-05-10T23:02:07.652Z,21
2017-05-10T23:04:05.544Z,21
2017-05-10T23:06:05.459Z,21
2017-05-10T23:08:05.181Z,21
2017-05-10T23:10:05.824Z,21
2017-05-10T23:12:05.535Z,21
2017-05-10T23:14:05.200Z,21
2017-05-10T23:16:05.250Z,21
2017-05-10T23:18:05.152Z,21
2017-05-10T23:20:04.873Z,21
2017-05-10T23:22:05.683Z,21
2017-05-10T23:24:04.970Z,21
2017-05-10T23:26:09.738Z,21
2017-05-10T23:28:05.624Z,21
2017-05-10T23:30:05.322Z,21
2017-05-10T23:32:07.546Z,21
2017-05-10T23:34:05.646Z,21
2017-05-10T23:36:05.388Z,21
2017-05-10T23:38:04.759Z,21
2017-05-10T23:40:10.713Z,21
2017-05-10T23:42:07.435Z,21
2017-05-10T23:44:05.130Z,21
2017-05-10T23:46:07.810Z,21
2017-05-10T23:48:10.576Z,21
2017-05-10T23:50:05.269Z,21
2017-05-10T23:52:05.247Z,20.9
2017-05-10T23:54:07.721Z,20.9
2017-05-10T23:56:05.434Z,20.9
2017-05-10T23:58:05.300Z,20.9
